createdAt,value
2019-03-11T00:02:47.960Z,-7.83
2019-03-11T00:06:50.441Z,-8.01
2019-03-11T00:10:53.143Z,-8.07
2019-03-11T00:14:55.849Z,-8.26
2019-03-11T00:18:58.587Z,-8.42
2019-03-11T00:23:01.224Z,-8.48
2019-03-11T00:27:05.090Z,-8.61
2019-03-11T00:31:07.778Z,-8.68
2019-03-11T00:35:10.409Z,-8.75
2019-03-11T00:39:12.839Z,-8.78
2019-03-11T00:43:15.495Z,-8.85
2019-03-11T00:47:18.350Z,-8.92
2019-03-11T00:51:20.850Z,-9.04
2019-03-11T00:55:23.312Z,-9.16
2019-03-11T00:59:25.955Z,-9.21
2019-03-11T01:03:28.394Z,-9.27
2019-03-11T01:07:31.034Z,-9.31
2019-03-11T01:11:33.451Z,-9.32
2019-03-11T01:15:35.987Z,-9.43
2019-03-11T01:19:38.422Z,-9.56
2019-03-11T01:23:41.139Z,-9.71
2019-03-11T01:27:43.661Z,-9.71
2019-03-11T01:31:46.162Z,-9.84
2019-03-11T01:35:48.682Z,-9.84
2019-03-11T01:39:51.342Z,-9.82
2019-03-11T01:43:53.772Z,-9.67
2019-03-11T01:47:56.616Z,-9.66
2019-03-11T01:51:59.112Z,-9.86
2019-03-11T01:56:01.608Z,-9.95
2019-03-11T02:00:05.017Z,-9.98
2019-03-11T02:04:08.551Z,-10.07
2019-03-11T02:08:11.235Z,-9.98
2019-03-11T02:12:13.791Z,-10.09
2019-03-11T02:16:16.582Z,-10.16
2019-03-11T02:20:19.348Z,-10.21
2019-03-11T02:24:21.784Z,-10.27
2019-03-11T02:28:24.260Z,-10.30
2019-03-11T02:32:28.670Z,-10.18
2019-03-11T02:36:30.886Z,-10.00
2019-03-11T02:40:34.589Z,-10.00
2019-03-11T02:44:37.105Z,-9.79
2019-03-11T02:48:39.674Z,-9.65
2019-03-11T02:52:42.393Z,-9.52
2019-03-11T02:56:44.860Z,-9.52
2019-03-11T03:00:48.858Z,-9.39
2019-03-11T03:05:01.931Z,-9.33
2019-03-11T03:09:06.016Z,-9.26
2019-03-11T03:13:08.752Z,-9.16
2019-03-11T03:17:12.642Z,-9.02
2019-03-11T03:21:15.160Z,-8.88
2019-03-11T03:25:32.147Z,-8.81
2019-03-11T03:29:21.891Z,-8.71
2019-03-11T03:33:24.357Z,-8.64
2019-03-11T03:37:27.809Z,-8.58
2019-03-11T03:41:30.435Z,-8.47
2019-03-11T03:45:35.722Z,-8.41
2019-03-11T03:49:38.903Z,-8.39
2019-03-11T03:53:41.560Z,-8.43
2019-03-11T03:57:44.213Z,-8.47
2019-03-11T04:01:46.662Z,-8.44
2019-03-11T04:05:49.308Z,-8.40
2019-03-11T04:09:51.726Z,-8.38
2019-03-11T04:13:54.270Z,-8.32
2019-03-11T04:17:56.962Z,-8.27
2019-03-11T04:21:59.556Z,-8.31
2019-03-11T04:26:02.192Z,-8.36
2019-03-11T04:30:05.514Z,-8.35
2019-03-11T04:34:07.954Z,-8.27
2019-03-11T04:38:10.549Z,-8.18
2019-03-11T04:42:12.972Z,-8.12
2019-03-11T04:46:15.559Z,-8.06
2019-03-11T04:50:18.661Z,-8.10
2019-03-11T04:54:21.292Z,-8.16
2019-03-11T04:58:23.719Z,-8.24
2019-03-11T05:02:26.270Z,-8.16
2019-03-11T05:06:28.701Z,-8.02
2019-03-11T05:10:31.198Z,-7.89
2019-03-11T05:14:33.630Z,-7.82
2019-03-11T05:18:36.114Z,-7.79
2019-03-11T05:22:38.733Z,-7.76
2019-03-11T05:26:42.280Z,-7.74
2019-03-11T05:30:44.857Z,-7.73
2019-03-11T05:34:48.614Z,-7.64
2019-03-11T05:38:51.040Z,-7.55
2019-03-11T05:42:53.544Z,-7.41
2019-03-11T05:46:56.032Z,-7.36
2019-03-11T05:50:58.578Z,-7.37
2019-03-11T05:55:02.200Z,-7.36
2019-03-11T05:59:04.744Z,-7.39
2019-03-11T06:03:07.143Z,-7.40
2019-03-11T06:07:09.636Z,-7.42
2019-03-11T06:11:12.065Z,-7.34
2019-03-11T06:15:15.405Z,-7.32
2019-03-11T06:19:17.835Z,-7.33
2019-03-11T06:23:20.447Z,-7.35
2019-03-11T06:27:22.883Z,-7.37
2019-03-11T06:31:25.382Z,-7.30
2019-03-11T06:35:27.863Z,-7.17
2019-03-11T06:39:30.464Z,-7.15
2019-03-11T06:43:33.114Z,-7.15
2019-03-11T06:47:35.638Z,-7.15
2019-03-11T06:51:38.232Z,-7.06
2019-03-11T06:55:40.773Z,-6.82
2019-03-11T06:59:44.418Z,-6.62
2019-03-11T07:03:46.885Z,-6.48
2019-03-11T07:07:49.375Z,-6.35
2019-03-11T07:11:51.843Z,-6.15
2019-03-11T07:15:54.267Z,-6.03
2019-03-11T07:19:56.868Z,-5.90
2019-03-11T07:24:00.679Z,-5.82
2019-03-11T07:28:03.363Z,-5.91
2019-03-11T07:32:05.828Z,-6.01
2019-03-11T07:36:08.728Z,-5.90
2019-03-11T07:40:11.360Z,-5.78
2019-03-11T07:44:15.123Z,-5.75
2019-03-11T07:48:17.753Z,-5.67
2019-03-11T07:52:20.249Z,-5.50
2019-03-11T07:56:22.767Z,-5.29
2019-03-11T08:00:25.252Z,-5.44
2019-03-11T08:04:27.658Z,-5.15
2019-03-11T08:08:31.222Z,-4.90
2019-03-11T08:12:33.659Z,-5.00
2019-03-11T08:16:36.143Z,-4.77
2019-03-11T08:20:38.562Z,-4.73
2019-03-11T08:24:41.073Z,-4.67
2019-03-11T08:28:43.508Z,-4.55
2019-03-11T08:32:46.202Z,-4.27
2019-03-11T08:36:49.874Z,-4.48
2019-03-11T08:40:52.387Z,-4.18
2019-03-11T08:44:54.789Z,-4.36
2019-03-11T08:48:57.348Z,-4.45
2019-03-11T08:53:00.089Z,-4.14
2019-03-11T08:57:02.603Z,-3.82
2019-03-11T09:01:06.422Z,-3.64
2019-03-11T09:05:10.240Z,-3.66
2019-03-11T09:09:14.504Z,-3.41
2019-03-11T09:13:16.973Z,-2.77
2019-03-11T09:17:19.392Z,-3.04
2019-03-11T09:21:22.285Z,-2.69
2019-03-11T09:25:24.822Z,-2.46
2019-03-11T09:29:27.288Z,-2.50
2019-03-11T09:33:29.689Z,-2.15
2019-03-11T09:37:32.188Z,-2.46
2019-03-11T09:41:34.704Z,-2.20
2019-03-11T09:45:37.393Z,-2.08
2019-03-11T09:49:39.836Z,-2.24
2019-03-11T09:53:42.760Z,-2.34
2019-03-11T09:57:45.300Z,-2.50
2019-03-11T10:01:47.978Z,-2.65
2019-03-11T10:05:50.361Z,-3.08
2019-03-11T10:09:52.951Z,-3.19
2019-03-11T10:13:55.401Z,-2.98
2019-03-11T10:17:57.977Z,-2.72
2019-03-11T10:22:00.379Z,-2.84
2019-03-11T10:26:02.901Z,-2.69
2019-03-11T10:30:06.496Z,-2.68
2019-03-11T10:34:08.981Z,-2.58
2019-03-11T10:38:11.480Z,-2.55
2019-03-11T10:42:14.026Z,-2.89
2019-03-11T10:46:16.571Z,-2.71
2019-03-11T10:50:19.327Z,-2.63
2019-03-11T10:54:21.759Z,-3.13
2019-03-11T10:58:25.895Z,-2.92
2019-03-11T11:02:28.416Z,-3.19
2019-03-11T11:06:30.858Z,-3.22
2019-03-11T11:10:33.276Z,-3.30
2019-03-11T11:14:35.976Z,-3.42
2019-03-11T11:18:38.738Z,-3.27
2019-03-11T11:22:41.402Z,-2.92
2019-03-11T11:26:43.916Z,-3.23
2019-03-11T11:30:46.409Z,-2.99
2019-03-11T11:34:49.947Z,-2.80
2019-03-11T11:38:52.755Z,-2.73
2019-03-11T11:42:55.302Z,-2.68
2019-03-11T11:46:57.837Z,-3.00
2019-03-11T11:51:00.225Z,-2.66
2019-03-11T11:55:02.731Z,-2.36
2019-03-11T11:59:05.266Z,-2.59
2019-03-11T12:03:09.602Z,-2.49
2019-03-11T12:07:12.307Z,-2.43
2019-03-11T12:11:14.770Z,-2.57
2019-03-11T12:15:17.499Z,-2.79
2019-03-11T12:19:21.431Z,-2.87
2019-03-11T12:23:24.204Z,-2.46
2019-03-11T12:27:26.885Z,-2.54
2019-03-11T12:31:29.581Z,-2.39
2019-03-11T12:35:33.579Z,-1.66
2019-03-11T12:39:36.129Z,-1.87
2019-03-11T12:43:38.588Z,-2.37
2019-03-11T12:47:41.096Z,-2.72
2019-03-11T12:51:49.674Z,-2.54
2019-03-11T12:55:48.942Z,-2.41
2019-03-11T12:59:51.488Z,-2.63
2019-03-11T13:03:53.912Z,-2.99
2019-03-11T13:07:58.298Z,-2.95
2019-03-11T13:12:00.832Z,-3.27
2019-03-11T13:16:03.648Z,-3.31
2019-03-11T13:20:08.788Z,-3.46
2019-03-11T13:24:11.300Z,-3.50
2019-03-11T13:28:13.748Z,-3.31
2019-03-11T13:32:16.278Z,-3.44
2019-03-11T13:36:19.152Z,-3.23
2019-03-11T13:40:21.694Z,-3.09
2019-03-11T13:44:24.245Z,-3.13
2019-03-11T13:48:26.750Z,-3.15
2019-03-11T13:52:29.303Z,-3.06
2019-03-11T13:56:31.834Z,-2.98
2019-03-11T14:00:34.287Z,-3.16
2019-03-11T14:04:36.970Z,-2.99
2019-03-11T14:08:39.644Z,-3.23
2019-03-11T14:12:42.472Z,-3.39
2019-03-11T14:16:44.978Z,-3.38
2019-03-11T14:20:47.500Z,-3.30
2019-03-11T14:24:50.186Z,-3.63
2019-03-11T14:28:52.766Z,-3.75
2019-03-11T14:32:55.431Z,-3.75
2019-03-11T14:36:57.923Z,-3.91
2019-03-11T14:41:00.380Z,-3.79
2019-03-11T14:45:02.962Z,-3.92
2019-03-11T14:49:05.696Z,-4.11
2019-03-11T14:53:08.684Z,-4.13
2019-03-11T14:57:11.420Z,-4.10
2019-03-11T15:01:13.902Z,-4.11
2019-03-11T15:05:17.739Z,-4.13
2019-03-11T15:09:20.525Z,-4.19
2019-03-11T15:13:24.846Z,-4.30
2019-03-11T15:17:28.761Z,-4.19
2019-03-11T15:21:31.420Z,-3.04
2019-03-11T15:25:34.086Z,-3.39
2019-03-11T15:29:36.615Z,-3.95
2019-03-11T15:33:41.134Z,-4.33
2019-03-11T15:37:43.746Z,-4.52
2019-03-11T15:41:49.413Z,-4.62
2019-03-11T15:45:51.857Z,-4.69
2019-03-11T15:49:54.399Z,-4.81
2019-03-11T15:53:56.855Z,-4.98
2019-03-11T15:57:59.391Z,-5.09
2019-03-11T16:02:02.042Z,-5.17
2019-03-11T16:06:04.813Z,-5.27
2019-03-11T16:10:16.382Z,-5.32
2019-03-11T16:14:13.017Z,-5.34
2019-03-11T16:18:15.560Z,-5.41
2019-03-11T16:22:23.263Z,-5.63
2019-03-11T16:26:22.715Z,-5.66
2019-03-11T16:30:25.495Z,-5.77
2019-03-11T16:34:30.316Z,-5.98
2019-03-11T16:38:33.329Z,-6.11
2019-03-11T16:42:36.129Z,-6.15
2019-03-11T16:46:40.664Z,-6.23
2019-03-11T16:50:43.411Z,-6.26
2019-03-11T16:54:45.977Z,-6.39
2019-03-11T16:58:48.441Z,-6.32
2019-03-11T17:02:51.132Z,-6.36
2019-03-11T17:06:53.921Z,-6.39
2019-03-11T17:10:57.517Z,-6.45
2019-03-11T17:15:00.008Z,-6.47
2019-03-11T17:19:02.925Z,-6.48
2019-03-11T17:23:05.537Z,-6.46
2019-03-11T17:27:08.031Z,-6.53
2019-03-11T17:31:10.451Z,-6.69
2019-03-11T17:35:13.131Z,-6.85
2019-03-11T17:39:15.911Z,-6.91
2019-03-11T17:43:20.032Z,-6.86
2019-03-11T17:47:22.551Z,-6.85
2019-03-11T17:51:25.482Z,-6.70
2019-03-11T17:55:28.011Z,-6.73
2019-03-11T17:59:30.739Z,-6.76
2019-03-11T18:03:33.346Z,-6.73
2019-03-11T18:07:35.917Z,-6.89
2019-03-11T18:11:39.897Z,-6.77
2019-03-11T18:15:42.889Z,-6.74
2019-03-11T18:19:46.867Z,-6.71
2019-03-11T18:23:49.404Z,-6.60
2019-03-11T18:27:51.942Z,-6.56
2019-03-11T18:32:01.967Z,-6.60
2019-03-11T18:35:58.992Z,-6.78
2019-03-11T18:40:01.490Z,-6.93
2019-03-11T18:44:05.915Z,-6.97
2019-03-11T18:48:08.639Z,-7.01
2019-03-11T18:52:11.229Z,-7.09
2019-03-11T18:56:13.791Z,-7.08
2019-03-11T19:00:18.791Z,-7.10
2019-03-11T19:04:21.343Z,-7.11
2019-03-11T19:08:25.158Z,-7.28
2019-03-11T19:12:27.865Z,-7.39
2019-03-11T19:16:30.443Z,-7.36
2019-03-11T19:20:35.098Z,-7.21
2019-03-11T19:24:37.625Z,-7.21
2019-03-11T19:28:40.199Z,-7.04
2019-03-11T19:32:42.692Z,-7.02
2019-03-11T19:36:46.806Z,-7.04
2019-03-11T19:40:49.416Z,-7.28
2019-03-11T19:44:51.934Z,-7.35
2019-03-11T19:48:54.407Z,-7.52
2019-03-11T19:52:58.970Z,-7.86
2019-03-11T19:57:01.223Z,-7.80
2019-03-11T20:01:03.856Z,-7.94
2019-03-11T20:05:07.148Z,-7.93
2019-03-11T20:09:14.652Z,-7.90
2019-03-11T20:13:17.621Z,-7.80
2019-03-11T20:17:20.510Z,-7.96
2019-03-11T20:21:25.112Z,-8.12
2019-03-11T20:25:29.308Z,-8.44
2019-03-11T20:29:33.926Z,-8.59
2019-03-11T20:33:36.079Z,-8.72
2019-03-11T20:37:38.602Z,-8.88
2019-03-11T20:41:41.443Z,-9.15
2019-03-11T20:45:43.946Z,-9.34
2019-03-11T20:49:46.529Z,-9.48
2019-03-11T20:53:48.999Z,-9.29
2019-03-11T20:57:51.590Z,-9.41
2019-03-11T21:01:54.094Z,-9.55
2019-03-11T21:05:57.040Z,-9.56
2019-03-11T21:09:59.530Z,-9.81
2019-03-11T21:14:02.149Z,-9.78
2019-03-11T21:18:04.799Z,-9.78
2019-03-11T21:22:09.348Z,-10.09
2019-03-11T21:26:12.076Z,-10.04
2019-03-11T21:30:17.403Z,-10.08
2019-03-11T21:34:21.264Z,-10.08
2019-03-11T21:38:23.815Z,-10.20
2019-03-11T21:42:27.483Z,-10.48
2019-03-11T21:46:30.256Z,-10.48
2019-03-11T21:50:32.840Z,-10.64
2019-03-11T21:54:35.420Z,-10.54
2019-03-11T21:58:38.039Z,-10.53
2019-03-11T22:02:40.700Z,-10.53
2019-03-11T22:06:43.281Z,-10.58
2019-03-11T22:10:47.186Z,-10.67
2019-03-11T22:14:49.488Z,-10.42
2019-03-11T22:18:52.017Z,-10.46
2019-03-11T22:22:54.703Z,-10.31
2019-03-11T22:26:57.067Z,-10.37
2019-03-11T22:30:59.428Z,-10.56
2019-03-11T22:35:12.149Z,-10.70
2019-03-11T22:39:06.847Z,-10.74
2019-03-11T22:43:09.336Z,-10.74
2019-03-11T22:47:11.818Z,-10.92
2019-03-11T22:51:14.350Z,-10.91
2019-03-11T22:55:17.399Z,-10.73
2019-03-11T22:59:21.024Z,-10.87
2019-03-11T23:03:24.338Z,-10.98
2019-03-11T23:07:26.665Z,-11.15
2019-03-11T23:11:28.948Z,-11.17
2019-03-11T23:15:31.533Z,-11.24
2019-03-11T23:19:33.787Z,-11.23
2019-03-11T23:23:36.648Z,-11.37
2019-03-11T23:27:38.981Z,-11.34
2019-03-11T23:31:41.336Z,-11.46
2019-03-11T23:35:43.701Z,-11.29
2019-03-11T23:39:46.070Z,-10.99
2019-03-11T23:43:48.316Z,-11.08
2019-03-11T23:47:50.692Z,-11.13
2019-03-11T23:51:53.033Z,-11.34
2019-03-11T23:55:55.408Z,-11.44
2019-03-11T23:59:57.690Z,-11.50
